sensor_id;sensor_type;location;lat;lon;timestamp;P1;durP1;ratioP1;P2;durP2;ratioP2
19221;SDS011;9745;50.828;4.378;2023-03-08T00:01:40;17.00;;;9.90;;
19221;SDS011;9745;50.828;4.378;2023-03-08T00:04:06;16.57;;;10.80;;
19221;SDS011;9745;50.828;4.378;2023-03-08T00:06:32;16.40;;;9.80;;
19221;SDS011;9745;50.828;4.378;2023-03-08T00:08:59;18.50;;;9.90;;
19221;SDS011;9745;50.828;4.378;2023-03-08T00:11:25;15.80;;;9.37;;
19221;SDS011;9745;50.828;4.378;2023-03-08T00:13:51;14.43;;;8.93;;
19221;SDS011;9745;50.828;4.378;2023-03-08T00:16:17;14.77;;;9.90;;
19221;SDS011;9745;50.828;4.378;2023-03-08T00:18:43;15.63;;;10.27;;
19221;SDS011;9745;50.828;4.378;2023-03-08T00:21:10;17.73;;;10.97;;
19221;SDS011;9745;50.828;4.378;2023-03-08T00:23:37;17.73;;;11.10;;
19221;SDS011;9745;50.828;4.378;2023-03-08T00:26:03;29.67;;;12.90;;
19221;SDS011;9745;50.828;4.378;2023-03-08T00:28:29;18.10;;;10.63;;
19221;SDS011;9745;50.828;4.378;2023-03-08T00:30:59;16.07;;;9.80;;
19221;SDS011;9745;50.828;4.378;2023-03-08T00:33:25;16.83;;;9.67;;
19221;SDS011;9745;50.828;4.378;2023-03-08T00:35:58;16.60;;;9.77;;
19221;SDS011;9745;50.828;4.378;2023-03-08T00:38:24;14.37;;;9.07;;
19221;SDS011;9745;50.828;4.378;2023-03-08T00:40:51;17.67;;;9.13;;
19221;SDS011;9745;50.828;4.378;2023-03-08T00:43:17;17.93;;;9.50;;
19221;SDS011;9745;50.828;4.378;2023-03-08T00:45:44;14.40;;;8.63;;
19221;SDS011;9745;50.828;4.378;2023-03-08T00:48:10;14.70;;;9.20;;
19221;SDS011;9745;50.828;4.378;2023-03-08T00:50:36;15.90;;;9.00;;
19221;SDS011;9745;50.828;4.378;2023-03-08T00:53:02;15.40;;;8.87;;
19221;SDS011;9745;50.828;4.378;2023-03-08T00:55:28;12.70;;;8.10;;
19221;SDS011;9745;50.828;4.378;2023-03-08T00:57:54;15.93;;;8.40;;
19221;SDS011;9745;50.828;4.378;2023-03-08T01:00:20;13.17;;;8.10;;
19221;SDS011;9745;50.828;4.378;2023-03-08T01:02:46;17.00;;;9.43;;
19221;SDS011;9745;50.828;4.378;2023-03-08T01:05:12;14.87;;;8.77;;
19221;SDS011;9745;50.828;4.378;2023-03-08T01:07:38;15.77;;;9.43;;
19221;SDS011;9745;50.828;4.378;2023-03-08T01:10:04;14.87;;;8.23;;
19221;SDS011;9745;50.828;4.378;2023-03-08T01:12:31;14.97;;;9.53;;
19221;SDS011;9745;50.828;4.378;2023-03-08T01:14:57;15.00;;;9.07;;
19221;SDS011;9745;50.828;4.378;2023-03-08T01:17:23;16.43;;;10.17;;
19221;SDS011;9745;50.828;4.378;2023-03-08T01:19:49;15.07;;;9.07;;
19221;SDS011;9745;50.828;4.378;2023-03-08T01:22:15;14.50;;;9.53;;
19221;SDS011;9745;50.828;4.378;2023-03-08T01:24:45;17.27;;;9.83;;
19221;SDS011;9745;50.828;4.378;2023-03-08T01:27:11;14.97;;;9.27;;
19221;SDS011;9745;50.828;4.378;2023-03-08T01:29:37;14.90;;;8.23;;
19221;SDS011;9745;50.828;4.378;2023-03-08T01:32:03;15.17;;;9.50;;
19221;SDS011;9745;50.828;4.378;2023-03-08T01:34:30;15.83;;;9.27;;
19221;SDS011;9745;50.828;4.378;2023-03-08T01:36:55;16.07;;;10.07;;
19221;SDS011;9745;50.828;4.378;2023-03-08T01:39:21;17.07;;;9.87;;
19221;SDS011;9745;50.828;4.378;2023-03-08T01:41:47;16.77;;;10.17;;
19221;SDS011;9745;50.828;4.378;2023-03-08T01:44:14;15.80;;;9.93;;
19221;SDS011;9745;50.828;4.378;2023-03-08T01:46:40;17.23;;;10.00;;
19221;SDS011;9745;50.828;4.378;2023-03-08T01:53:59;17.00;;;9.97;;
19221;SDS011;9745;50.828;4.378;2023-03-08T01:56:27;14.60;;;9.30;;
19221;SDS011;9745;50.828;4.378;2023-03-08T01:58:53;21.17;;;9.40;;
19221;SDS011;9745;50.828;4.378;2023-03-08T02:01:20;14.80;;;8.30;;
19221;SDS011;9745;50.828;4.378;2023-03-08T02:03:46;13.30;;;7.70;;
19221;SDS011;9745;50.828;4.378;2023-03-08T02:06:13;13.57;;;8.33;;
19221;SDS011;9745;50.828;4.378;2023-03-08T02:08:39;14.93;;;8.73;;
19221;SDS011;9745;50.828;4.378;2023-03-08T02:11:06;13.47;;;7.27;;
19221;SDS011;9745;50.828;4.378;2023-03-08T02:13:32;15.13;;;8.07;;
19221;SDS011;9745;50.828;4.378;2023-03-08T02:15:58;13.40;;;7.37;;
19221;SDS011;9745;50.828;4.378;2023-03-08T02:18:24;16.03;;;8.43;;
19221;SDS011;9745;50.828;4.378;2023-03-08T02:20:50;13.40;;;7.93;;
19221;SDS011;9745;50.828;4.378;2023-03-08T02:23:21;14.73;;;8.10;;
19221;SDS011;9745;50.828;4.378;2023-03-08T02:28:19;15.70;;;7.80;;
19221;SDS011;9745;50.828;4.378;2023-03-08T02:30:45;12.60;;;7.50;;
19221;SDS011;9745;50.828;4.378;2023-03-08T02:33:11;13.90;;;8.33;;
19221;SDS011;9745;50.828;4.378;2023-03-08T02:35:37;16.50;;;9.20;;
19221;SDS011;9745;50.828;4.378;2023-03-08T02:38:06;16.27;;;8.57;;
19221;SDS011;9745;50.828;4.378;2023-03-08T02:40:32;13.60;;;7.93;;
19221;SDS011;9745;50.828;4.378;2023-03-08T02:42:58;14.17;;;8.53;;
19221;SDS011;9745;50.828;4.378;2023-03-08T02:45:24;15.20;;;8.13;;
19221;SDS011;9745;50.828;4.378;2023-03-08T02:47:50;16.10;;;8.40;;
19221;SDS011;9745;50.828;4.378;2023-03-08T02:50:16;15.17;;;9.07;;
19221;SDS011;9745;50.828;4.378;2023-03-08T02:52:42;12.80;;;8.40;;
19221;SDS011;9745;50.828;4.378;2023-03-08T02:55:08;16.70;;;9.13;;
19221;SDS011;9745;50.828;4.378;2023-03-08T02:57:34;14.00;;;8.17;;
19221;SDS011;9745;50.828;4.378;2023-03-08T03:00:00;17.43;;;9.70;;
19221;SDS011;9745;50.828;4.378;2023-03-08T03:02:26;18.40;;;10.17;;
19221;SDS011;9745;50.828;4.378;2023-03-08T03:04:52;17.37;;;9.67;;
19221;SDS011;9745;50.828;4.378;2023-03-08T03:07:18;16.33;;;9.73;;
19221;SDS011;9745;50.828;4.378;2023-03-08T03:09:44;15.63;;;9.10;;
19221;SDS011;9745;50.828;4.378;2023-03-08T03:12:10;14.90;;;8.77;;
19221;SDS011;9745;50.828;4.378;2023-03-08T03:14:36;15.87;;;8.20;;
19221;SDS011;9745;50.828;4.378;2023-03-08T03:17:02;12.37;;;6.27;;
19221;SDS011;9745;50.828;4.378;2023-03-08T03:19:28;9.87;;;6.27;;
19221;SDS011;9745;50.828;4.378;2023-03-08T03:21:54;10.67;;;6.03;;
19221;SDS011;9745;50.828;4.378;2023-03-08T03:24:20;11.90;;;6.40;;
19221;SDS011;9745;50.828;4.378;2023-03-08T03:26:49;12.07;;;6.33;;
19221;SDS011;9745;50.828;4.378;2023-03-08T03:29:15;10.17;;;5.60;;
19221;SDS011;9745;50.828;4.378;2023-03-08T03:31:41;11.90;;;5.60;;
19221;SDS011;9745;50.828;4.378;2023-03-08T03:34:07;8.20;;;4.70;;
19221;SDS011;9745;50.828;4.378;2023-03-08T03:36:33;8.63;;;5.50;;
19221;SDS011;9745;50.828;4.378;2023-03-08T03:38:59;10.10;;;4.97;;
19221;SDS011;9745;50.828;4.378;2023-03-08T03:41:25;7.07;;;4.30;;
19221;SDS011;9745;50.828;4.378;2023-03-08T03:43:51;9.40;;;4.40;;
19221;SDS011;9745;50.828;4.378;2023-03-08T03:46:18;7.30;;;4.07;;
19221;SDS011;9745;50.828;4.378;2023-03-08T03:48:45;6.77;;;3.60;;
19221;SDS011;9745;50.828;4.378;2023-03-08T03:51:12;9.37;;;4.00;;
19221;SDS011;9745;50.828;4.378;2023-03-08T03:53:39;7.93;;;3.70;;
19221;SDS011;9745;50.828;4.378;2023-03-08T03:56:06;7.53;;;3.97;;
19221;SDS011;9745;50.828;4.378;2023-03-08T03:58:33;6.53;;;3.60;;
19221;SDS011;9745;50.828;4.378;2023-03-08T04:00:59;7.60;;;3.70;;
19221;SDS011;9745;50.828;4.378;2023-03-08T04:03:25;6.17;;;3.33;;
19221;SDS011;9745;50.828;4.378;2023-03-08T04:05:51;5.37;;;3.03;;
19221;SDS011;9745;50.828;4.378;2023-03-08T04:08:17;5.40;;;3.10;;
19221;SDS011;9745;50.828;4.378;2023-03-08T04:10:43;4.33;;;2.77;;
19221;SDS011;9745;50.828;4.378;2023-03-08T04:13:10;4.20;;;2.97;;
19221;SDS011;9745;50.828;4.378;2023-03-08T04:15:36;4.27;;;2.77;;
19221;SDS011;9745;50.828;4.378;2023-03-08T04:18:02;4.57;;;2.50;;
19221;SDS011;9745;50.828;4.378;2023-03-08T04:20:28;4.70;;;2.93;;
19221;SDS011;9745;50.828;4.378;2023-03-08T04:22:54;5.47;;;3.20;;
19221;SDS011;9745;50.828;4.378;2023-03-08T04:25:20;7.37;;;3.03;;
19221;SDS011;9745;50.828;4.378;2023-03-08T04:27:46;7.23;;;3.33;;
19221;SDS011;9745;50.828;4.378;2023-03-08T04:30:12;5.17;;;3.07;;
19221;SDS011;9745;50.828;4.378;2023-03-08T04:32:38;4.67;;;2.47;;
19221;SDS011;9745;50.828;4.378;2023-03-08T04:35:04;4.97;;;3.03;;
19221;SDS011;9745;50.828;4.378;2023-03-08T04:37:30;5.27;;;3.23;;
19221;SDS011;9745;50.828;4.378;2023-03-08T04:39:57;5.63;;;3.43;;
19221;SDS011;9745;50.828;4.378;2023-03-08T04:42:23;5.80;;;3.67;;
19221;SDS011;9745;50.828;4.378;2023-03-08T04:44:48;5.87;;;3.57;;
19221;SDS011;9745;50.828;4.378;2023-03-08T04:47:15;5.17;;;3.40;;
19221;SDS011;9745;50.828;4.378;2023-03-08T04:49:41;5.30;;;3.53;;
19221;SDS011;9745;50.828;4.378;2023-03-08T04:52:06;4.97;;;2.97;;
19221;SDS011;9745;50.828;4.378;2023-03-08T04:54:33;5.03;;;3.13;;
19221;SDS011;9745;50.828;4.378;2023-03-08T04:56:59;5.93;;;3.53;;
19221;SDS011;9745;50.828;4.378;2023-03-08T04:59:25;5.47;;;3.57;;
19221;SDS011;9745;50.828;4.378;2023-03-08T05:01:50;6.27;;;3.90;;
19221;SDS011;9745;50.828;4.378;2023-03-08T05:04:17;5.63;;;3.23;;
19221;SDS011;9745;50.828;4.378;2023-03-08T05:06:43;5.27;;;3.30;;
19221;SDS011;9745;50.828;4.378;2023-03-08T05:09:09;5.90;;;3.43;;
19221;SDS011;9745;50.828;4.378;2023-03-08T05:11:35;6.00;;;3.63;;
19221;SDS011;9745;50.828;4.378;2023-03-08T05:14:01;5.10;;;3.33;;
19221;SDS011;9745;50.828;4.378;2023-03-08T05:16:27;4.33;;;3.17;;
19221;SDS011;9745;50.828;4.378;2023-03-08T05:18:53;5.00;;;3.40;;
19221;SDS011;9745;50.828;4.378;2023-03-08T05:21:20;4.87;;;3.20;;
19221;SDS011;9745;50.828;4.378;2023-03-08T05:23:46;5.00;;;3.47;;
19221;SDS011;9745;50.828;4.378;2023-03-08T05:26:13;5.40;;;3.40;;
19221;SDS011;9745;50.828;4.378;2023-03-08T05:28:40;4.90;;;2.87;;
19221;SDS011;9745;50.828;4.378;2023-03-08T05:31:07;5.00;;;3.20;;
19221;SDS011;9745;50.828;4.378;2023-03-08T05:33:34;5.50;;;3.83;;
19221;SDS011;9745;50.828;4.378;2023-03-08T05:36:00;5.00;;;3.63;;
19221;SDS011;9745;50.828;4.378;2023-03-08T05:38:26;3.90;;;3.10;;
19221;SDS011;9745;50.828;4.378;2023-03-08T05:40:52;5.77;;;3.60;;
19221;SDS011;9745;50.828;4.378;2023-03-08T05:43:18;6.13;;;3.93;;
19221;SDS011;9745;50.828;4.378;2023-03-08T05:45:58;5.63;;;3.50;;
19221;SDS011;9745;50.828;4.378;2023-03-08T05:48:26;4.70;;;3.20;;
19221;SDS011;9745;50.828;4.378;2023-03-08T05:50:52;5.23;;;3.33;;
19221;SDS011;9745;50.828;4.378;2023-03-08T05:53:18;5.37;;;3.60;;
19221;SDS011;9745;50.828;4.378;2023-03-08T05:55:45;4.40;;;3.17;;
19221;SDS011;9745;50.828;4.378;2023-03-08T05:58:11;6.83;;;3.53;;
19221;SDS011;9745;50.828;4.378;2023-03-08T06:00:37;4.37;;;3.50;;
19221;SDS011;9745;50.828;4.378;2023-03-08T06:03:03;6.13;;;4.07;;
19221;SDS011;9745;50.828;4.378;2023-03-08T06:05:29;5.23;;;3.67;;
19221;SDS011;9745;50.828;4.378;2023-03-08T06:07:55;7.80;;;3.90;;
19221;SDS011;9745;50.828;4.378;2023-03-08T06:10:21;5.67;;;3.73;;
19221;SDS011;9745;50.828;4.378;2023-03-08T06:12:47;7.03;;;4.10;;
19221;SDS011;9745;50.828;4.378;2023-03-08T06:15:13;5.03;;;3.80;;
19221;SDS011;9745;50.828;4.378;2023-03-08T06:17:40;6.00;;;4.50;;
19221;SDS011;9745;50.828;4.378;2023-03-08T06:20:06;6.60;;;4.03;;
19221;SDS011;9745;50.828;4.378;2023-03-08T06:22:33;5.33;;;3.87;;
19221;SDS011;9745;50.828;4.378;2023-03-08T06:24:59;5.90;;;3.70;;
19221;SDS011;9745;50.828;4.378;2023-03-08T06:27:25;5.70;;;3.67;;
19221;SDS011;9745;50.828;4.378;2023-03-08T06:29:51;6.23;;;4.03;;
19221;SDS011;9745;50.828;4.378;2023-03-08T06:32:17;9.03;;;4.50;;
19221;SDS011;9745;50.828;4.378;2023-03-08T06:34:43;5.30;;;3.80;;
19221;SDS011;9745;50.828;4.378;2023-03-08T06:37:11;5.97;;;4.30;;
19221;SDS011;9745;50.828;4.378;2023-03-08T06:39:37;6.60;;;4.70;;
19221;SDS011;9745;50.828;4.378;2023-03-08T06:42:03;6.43;;;4.60;;
19221;SDS011;9745;50.828;4.378;2023-03-08T06:44:29;6.20;;;4.57;;
19221;SDS011;9745;50.828;4.378;2023-03-08T06:46:55;8.43;;;4.83;;
19221;SDS011;9745;50.828;4.378;2023-03-08T06:49:21;7.30;;;4.67;;
19221;SDS011;9745;50.828;4.378;2023-03-08T06:51:47;10.03;;;5.53;;
19221;SDS011;9745;50.828;4.378;2023-03-08T06:54:13;8.03;;;5.40;;
19221;SDS011;9745;50.828;4.378;2023-03-08T06:56:44;7.10;;;4.80;;
19221;SDS011;9745;50.828;4.378;2023-03-08T06:59:11;9.40;;;5.40;;
19221;SDS011;9745;50.828;4.378;2023-03-08T07:01:37;8.77;;;6.03;;
19221;SDS011;9745;50.828;4.378;2023-03-08T07:04:03;7.60;;;5.50;;
19221;SDS011;9745;50.828;4.378;2023-03-08T07:06:29;14.50;;;7.00;;
19221;SDS011;9745;50.828;4.378;2023-03-08T07:08:55;8.90;;;5.80;;
19221;SDS011;9745;50.828;4.378;2023-03-08T07:11:21;8.83;;;5.83;;
19221;SDS011;9745;50.828;4.378;2023-03-08T07:13:47;11.77;;;7.07;;
19221;SDS011;9745;50.828;4.378;2023-03-08T07:16:13;12.17;;;6.60;;
19221;SDS011;9745;50.828;4.378;2023-03-08T07:18:39;10.27;;;5.50;;
19221;SDS011;9745;50.828;4.378;2023-03-08T07:21:06;9.43;;;5.97;;
19221;SDS011;9745;50.828;4.378;2023-03-08T07:23:32;9.73;;;6.20;;
19221;SDS011;9745;50.828;4.378;2023-03-08T07:25:58;7.10;;;5.30;;
19221;SDS011;9745;50.828;4.378;2023-03-08T07:28:24;9.13;;;5.87;;
19221;SDS011;9745;50.828;4.378;2023-03-08T07:30:50;8.97;;;5.50;;
19221;SDS011;9745;50.828;4.378;2023-03-08T07:33:17;7.53;;;4.80;;
19221;SDS011;9745;50.828;4.378;2023-03-08T07:35:43;8.30;;;5.10;;
19221;SDS011;9745;50.828;4.378;2023-03-08T07:38:10;7.40;;;4.50;;
19221;SDS011;9745;50.828;4.378;2023-03-08T07:40:36;7.93;;;5.10;;
19221;SDS011;9745;50.828;4.378;2023-03-08T07:43:02;7.60;;;4.90;;
19221;SDS011;9745;50.828;4.378;2023-03-08T07:45:28;8.33;;;5.13;;
19221;SDS011;9745;50.828;4.378;2023-03-08T07:47:54;7.23;;;4.30;;
19221;SDS011;9745;50.828;4.378;2023-03-08T07:50:21;7.90;;;4.53;;
19221;SDS011;9745;50.828;4.378;2023-03-08T07:52:47;7.27;;;4.83;;
19221;SDS011;9745;50.828;4.378;2023-03-08T07:55:13;7.60;;;5.50;;
19221;SDS011;9745;50.828;4.378;2023-03-08T07:57:39;6.57;;;4.73;;
19221;SDS011;9745;50.828;4.378;2023-03-08T08:00:05;6.70;;;4.40;;
19221;SDS011;9745;50.828;4.378;2023-03-08T08:02:32;7.50;;;4.67;;
19221;SDS011;9745;50.828;4.378;2023-03-08T08:04:58;7.30;;;4.43;;
19221;SDS011;9745;50.828;4.378;2023-03-08T08:07:24;6.97;;;4.20;;
19221;SDS011;9745;50.828;4.378;2023-03-08T08:09:50;6.20;;;3.97;;
19221;SDS011;9745;50.828;4.378;2023-03-08T08:12:16;8.40;;;4.27;;
19221;SDS011;9745;50.828;4.378;2023-03-08T08:14:42;6.30;;;3.70;;
19221;SDS011;9745;50.828;4.378;2023-03-08T08:17:08;5.50;;;3.77;;
19221;SDS011;9745;50.828;4.378;2023-03-08T08:19:35;6.30;;;3.90;;
19221;SDS011;9745;50.828;4.378;2023-03-08T08:22:01;9.30;;;4.17;;
19221;SDS011;9745;50.828;4.378;2023-03-08T08:24:27;6.43;;;3.73;;
19221;SDS011;9745;50.828;4.378;2023-03-08T08:26:54;5.13;;;3.73;;
19221;SDS011;9745;50.828;4.378;2023-03-08T08:29:20;8.27;;;3.73;;
19221;SDS011;9745;50.828;4.378;2023-03-08T08:31:47;7.50;;;4.93;;
19221;SDS011;9745;50.828;4.378;2023-03-08T08:34:13;6.40;;;3.77;;
19221;SDS011;9745;50.828;4.378;2023-03-08T08:36:38;6.57;;;3.67;;
19221;SDS011;9745;50.828;4.378;2023-03-08T08:39:05;4.83;;;3.30;;
19221;SDS011;9745;50.828;4.378;2023-03-08T08:41:30;7.30;;;4.33;;
19221;SDS011;9745;50.828;4.378;2023-03-08T08:43:57;5.27;;;3.23;;
19221;SDS011;9745;50.828;4.378;2023-03-08T08:46:24;5.37;;;3.30;;
19221;SDS011;9745;50.828;4.378;2023-03-08T08:48:52;7.03;;;4.07;;
19221;SDS011;9745;50.828;4.378;2023-03-08T08:51:18;5.00;;;3.27;;
19221;SDS011;9745;50.828;4.378;2023-03-08T08:53:44;6.00;;;3.77;;
19221;SDS011;9745;50.828;4.378;2023-03-08T08:56:11;6.03;;;3.83;;
19221;SDS011;9745;50.828;4.378;2023-03-08T08:58:37;5.93;;;3.70;;
19221;SDS011;9745;50.828;4.378;2023-03-08T09:01:03;7.47;;;3.90;;
19221;SDS011;9745;50.828;4.378;2023-03-08T09:03:29;6.87;;;3.50;;
19221;SDS011;9745;50.828;4.378;2023-03-08T09:05:56;6.07;;;4.20;;
19221;SDS011;9745;50.828;4.378;2023-03-08T09:08:23;11.57;;;4.03;;
19221;SDS011;9745;50.828;4.378;2023-03-08T09:10:49;6.73;;;4.13;;
19221;SDS011;9745;50.828;4.378;2023-03-08T09:13:15;11.33;;;4.10;;
19221;SDS011;9745;50.828;4.378;2023-03-08T09:15:41;5.27;;;3.57;;
19221;SDS011;9745;50.828;4.378;2023-03-08T09:18:07;5.63;;;3.43;;
19221;SDS011;9745;50.828;4.378;2023-03-08T09:20:33;6.87;;;4.03;;
19221;SDS011;9745;50.828;4.378;2023-03-08T09:22:59;6.27;;;4.00;;
19221;SDS011;9745;50.828;4.378;2023-03-08T09:25:25;5.17;;;3.50;;
19221;SDS011;9745;50.828;4.378;2023-03-08T09:27:50;9.40;;;3.57;;
19221;SDS011;9745;50.828;4.378;2023-03-08T09:30:17;6.47;;;4.43;;
19221;SDS011;9745;50.828;4.378;2023-03-08T09:32:43;7.87;;;4.10;;
19221;SDS011;9745;50.828;4.378;2023-03-08T09:35:09;5.57;;;3.90;;
19221;SDS011;9745;50.828;4.378;2023-03-08T09:37:36;5.83;;;3.87;;
19221;SDS011;9745;50.828;4.378;2023-03-08T09:40:02;4.67;;;3.50;;
19221;SDS011;9745;50.828;4.378;2023-03-08T09:42:37;5.57;;;3.33;;
19221;SDS011;9745;50.828;4.378;2023-03-08T09:45:19;4.97;;;3.97;;
19221;SDS011;9745;50.828;4.378;2023-03-08T09:47:48;7.67;;;4.17;;
19221;SDS011;9745;50.828;4.378;2023-03-08T09:52:53;7.93;;;4.70;;
19221;SDS011;9745;50.828;4.378;2023-03-08T09:55:23;6.67;;;4.63;;
19221;SDS011;9745;50.828;4.378;2023-03-08T09:58:00;6.83;;;4.33;;
19221;SDS011;9745;50.828;4.378;2023-03-08T10:00:34;7.63;;;4.40;;
19221;SDS011;9745;50.828;4.378;2023-03-08T10:03:10;6.33;;;4.77;;
19221;SDS011;9745;50.828;4.378;2023-03-08T10:05:46;6.27;;;4.70;;
19221;SDS011;9745;50.828;4.378;2023-03-08T10:08:15;7.03;;;4.90;;
19221;SDS011;9745;50.828;4.378;2023-03-08T10:13:33;6.17;;;4.63;;
19221;SDS011;9745;50.828;4.378;2023-03-08T10:16:04;6.37;;;4.60;;
19221;SDS011;9745;50.828;4.378;2023-03-08T10:21:10;5.87;;;4.13;;
19221;SDS011;9745;50.828;4.378;2023-03-08T10:23:37;6.83;;;4.30;;
19221;SDS011;9745;50.828;4.378;2023-03-08T10:26:08;5.73;;;4.03;;
19221;SDS011;9745;50.828;4.378;2023-03-08T10:28:34;6.13;;;4.40;;
19221;SDS011;9745;50.828;4.378;2023-03-08T10:31:01;5.60;;;4.17;;
19221;SDS011;9745;50.828;4.378;2023-03-08T10:33:30;5.93;;;4.40;;
19221;SDS011;9745;50.828;4.378;2023-03-08T10:38:31;7.40;;;4.60;;
19221;SDS011;9745;50.828;4.378;2023-03-08T10:40:58;6.77;;;4.13;;
19221;SDS011;9745;50.828;4.378;2023-03-08T10:43:26;6.80;;;3.83;;
19221;SDS011;9745;50.828;4.378;2023-03-08T10:45:56;6.10;;;4.03;;
19221;SDS011;9745;50.828;4.378;2023-03-08T10:48:22;7.47;;;4.47;;
19221;SDS011;9745;50.828;4.378;2023-03-08T10:50:56;6.73;;;4.40;;
19221;SDS011;9745;50.828;4.378;2023-03-08T10:53:23;6.77;;;4.13;;
19221;SDS011;9745;50.828;4.378;2023-03-08T10:55:52;6.30;;;4.50;;
19221;SDS011;9745;50.828;4.378;2023-03-08T10:58:37;6.77;;;4.00;;
19221;SDS011;9745;50.828;4.378;2023-03-08T11:03:29;7.47;;;4.73;;
19221;SDS011;9745;50.828;4.378;2023-03-08T11:05:57;6.33;;;4.70;;
19221;SDS011;9745;50.828;4.378;2023-03-08T11:08:25;7.27;;;5.20;;
19221;SDS011;9745;50.828;4.378;2023-03-08T11:11:11;6.17;;;4.40;;
19221;SDS011;9745;50.828;4.378;2023-03-08T11:13:38;9.50;;;5.57;;
19221;SDS011;9745;50.828;4.378;2023-03-08T11:16:21;6.90;;;4.90;;
19221;SDS011;9745;50.828;4.378;2023-03-08T11:18:59;6.77;;;4.97;;
19221;SDS011;9745;50.828;4.378;2023-03-08T11:21:30;7.40;;;5.47;;
19221;SDS011;9745;50.828;4.378;2023-03-08T11:24:06;7.57;;;5.57;;
19221;SDS011;9745;50.828;4.378;2023-03-08T11:26:39;6.60;;;5.53;;
19221;SDS011;9745;50.828;4.378;2023-03-08T11:31:54;10.50;;;6.67;;
19221;SDS011;9745;50.828;4.378;2023-03-08T11:42:09;7.37;;;5.97;;
19221;SDS011;9745;50.828;4.378;2023-03-08T11:47:36;9.13;;;6.77;;
19221;SDS011;9745;50.828;4.378;2023-03-08T11:50:07;9.83;;;7.63;;
19221;SDS011;9745;50.828;4.378;2023-03-08T11:57:33;11.20;;;7.83;;
19221;SDS011;9745;50.828;4.378;2023-03-08T12:00:03;12.37;;;8.57;;
19221;SDS011;9745;50.828;4.378;2023-03-08T12:02:37;13.60;;;7.90;;
19221;SDS011;9745;50.828;4.378;2023-03-08T12:05:09;11.90;;;7.97;;
19221;SDS011;9745;50.828;4.378;2023-03-08T12:07:42;15.97;;;8.77;;
19221;SDS011;9745;50.828;4.378;2023-03-08T12:10:14;12.90;;;8.87;;
19221;SDS011;9745;50.828;4.378;2023-03-08T12:12:47;11.57;;;7.80;;
19221;SDS011;9745;50.828;4.378;2023-03-08T12:15:22;13.27;;;9.40;;
19221;SDS011;9745;50.828;4.378;2023-03-08T12:17:52;13.80;;;9.20;;
19221;SDS011;9745;50.828;4.378;2023-03-08T12:20:18;14.17;;;9.50;;
19221;SDS011;9745;50.828;4.378;2023-03-08T12:22:55;13.03;;;9.63;;
19221;SDS011;9745;50.828;4.378;2023-03-08T12:25:28;11.80;;;8.13;;
19221;SDS011;9745;50.828;4.378;2023-03-08T12:30:24;12.80;;;8.47;;
19221;SDS011;9745;50.828;4.378;2023-03-08T12:32:50;13.37;;;8.80;;
19221;SDS011;9745;50.828;4.378;2023-03-08T12:35:27;13.77;;;9.07;;
19221;SDS011;9745;50.828;4.378;2023-03-08T12:43:02;13.07;;;9.77;;
19221;SDS011;9745;50.828;4.378;2023-03-08T12:45:28;15.77;;;9.70;;
19221;SDS011;9745;50.828;4.378;2023-03-08T12:50:30;13.80;;;9.27;;
19221;SDS011;9745;50.828;4.378;2023-03-08T12:52:58;15.17;;;8.50;;
19221;SDS011;9745;50.828;4.378;2023-03-08T12:55:25;12.63;;;8.67;;
19221;SDS011;9745;50.828;4.378;2023-03-08T12:57:55;13.70;;;8.63;;
19221;SDS011;9745;50.828;4.378;2023-03-08T13:00:23;11.80;;;8.17;;
19221;SDS011;9745;50.828;4.378;2023-03-08T13:10:51;13.17;;;8.67;;
19221;SDS011;9745;50.828;4.378;2023-03-08T13:13:31;13.13;;;7.97;;
19221;SDS011;9745;50.828;4.378;2023-03-08T13:16:06;13.20;;;8.53;;
19221;SDS011;9745;50.828;4.378;2023-03-08T13:18:44;14.27;;;9.30;;
19221;SDS011;9745;50.828;4.378;2023-03-08T13:21:25;12.13;;;9.50;;
19221;SDS011;9745;50.828;4.378;2023-03-08T13:29:26;13.07;;;8.43;;
19221;SDS011;9745;50.828;4.378;2023-03-08T13:31:53;11.83;;;7.87;;
19221;SDS011;9745;50.828;4.378;2023-03-08T13:34:24;15.13;;;9.40;;
19221;SDS011;9745;50.828;4.378;2023-03-08T13:36:50;13.27;;;9.03;;
19221;SDS011;9745;50.828;4.378;2023-03-08T13:39:17;11.77;;;8.80;;
19221;SDS011;9745;50.828;4.378;2023-03-08T13:41:44;11.93;;;8.37;;
19221;SDS011;9745;50.828;4.378;2023-03-08T13:44:14;13.67;;;8.60;;
19221;SDS011;9745;50.828;4.378;2023-03-08T13:46:41;14.40;;;8.93;;
19221;SDS011;9745;50.828;4.378;2023-03-08T13:49:11;13.33;;;9.20;;
19221;SDS011;9745;50.828;4.378;2023-03-08T13:51:38;15.17;;;9.53;;
19221;SDS011;9745;50.828;4.378;2023-03-08T13:54:09;13.67;;;8.73;;
19221;SDS011;9745;50.828;4.378;2023-03-08T13:56:37;13.17;;;9.37;;
19221;SDS011;9745;50.828;4.378;2023-03-08T13:59:03;16.90;;;10.30;;
19221;SDS011;9745;50.828;4.378;2023-03-08T14:01:29;16.37;;;8.93;;
19221;SDS011;9745;50.828;4.378;2023-03-08T14:03:55;14.77;;;9.40;;
19221;SDS011;9745;50.828;4.378;2023-03-08T14:06:29;14.13;;;9.80;;
19221;SDS011;9745;50.828;4.378;2023-03-08T14:08:57;21.97;;;10.53;;
19221;SDS011;9745;50.828;4.378;2023-03-08T14:11:35;15.23;;;10.03;;
19221;SDS011;9745;50.828;4.378;2023-03-08T14:14:03;17.13;;;10.50;;
19221;SDS011;9745;50.828;4.378;2023-03-08T14:16:32;17.30;;;10.00;;
19221;SDS011;9745;50.828;4.378;2023-03-08T14:18:59;16.13;;;10.60;;
19221;SDS011;9745;50.828;4.378;2023-03-08T14:21:26;17.57;;;11.63;;
19221;SDS011;9745;50.828;4.378;2023-03-08T14:23:53;17.40;;;11.43;;
19221;SDS011;9745;50.828;4.378;2023-03-08T14:26:38;17.23;;;11.37;;
19221;SDS011;9745;50.828;4.378;2023-03-08T14:29:20;16.67;;;10.73;;
19221;SDS011;9745;50.828;4.378;2023-03-08T14:34:29;15.00;;;10.40;;
19221;SDS011;9745;50.828;4.378;2023-03-08T14:37:01;15.07;;;9.87;;
19221;SDS011;9745;50.828;4.378;2023-03-08T14:39:27;16.27;;;11.23;;
19221;SDS011;9745;50.828;4.378;2023-03-08T14:41:54;17.30;;;9.87;;
19221;SDS011;9745;50.828;4.378;2023-03-08T14:44:21;16.77;;;10.30;;
19221;SDS011;9745;50.828;4.378;2023-03-08T14:46:47;14.47;;;10.17;;
19221;SDS011;9745;50.828;4.378;2023-03-08T14:49:22;14.57;;;9.77;;
19221;SDS011;9745;50.828;4.378;2023-03-08T14:51:48;17.17;;;10.43;;
19221;SDS011;9745;50.828;4.378;2023-03-08T14:54:34;18.13;;;11.20;;
19221;SDS011;9745;50.828;4.378;2023-03-08T14:57:04;17.60;;;10.80;;
19221;SDS011;9745;50.828;4.378;2023-03-08T14:59:38;17.63;;;11.70;;
19221;SDS011;9745;50.828;4.378;2023-03-08T15:02:08;23.60;;;12.13;;
19221;SDS011;9745;50.828;4.378;2023-03-08T15:04:34;16.87;;;11.23;;
19221;SDS011;9745;50.828;4.378;2023-03-08T15:07:00;19.10;;;12.40;;
19221;SDS011;9745;50.828;4.378;2023-03-08T15:09:26;19.50;;;11.30;;
19221;SDS011;9745;50.828;4.378;2023-03-08T15:11:53;19.17;;;11.87;;
19221;SDS011;9745;50.828;4.378;2023-03-08T15:14:23;19.33;;;12.33;;
19221;SDS011;9745;50.828;4.378;2023-03-08T15:16:50;17.70;;;11.27;;
19221;SDS011;9745;50.828;4.378;2023-03-08T15:19:19;18.23;;;11.57;;
19221;SDS011;9745;50.828;4.378;2023-03-08T15:21:45;19.00;;;11.33;;
19221;SDS011;9745;50.828;4.378;2023-03-08T15:24:14;19.23;;;12.20;;
19221;SDS011;9745;50.828;4.378;2023-03-08T15:26:41;18.67;;;11.27;;
19221;SDS011;9745;50.828;4.378;2023-03-08T15:29:24;17.63;;;11.03;;
19221;SDS011;9745;50.828;4.378;2023-03-08T15:31:51;17.50;;;11.23;;
19221;SDS011;9745;50.828;4.378;2023-03-08T15:34:17;17.83;;;11.00;;
19221;SDS011;9745;50.828;4.378;2023-03-08T15:36:43;19.50;;;12.10;;
19221;SDS011;9745;50.828;4.378;2023-03-08T15:39:12;21.77;;;11.70;;
19221;SDS011;9745;50.828;4.378;2023-03-08T15:41:38;18.57;;;11.43;;
19221;SDS011;9745;50.828;4.378;2023-03-08T15:44:04;17.23;;;10.33;;
19221;SDS011;9745;50.828;4.378;2023-03-08T15:46:30;18.40;;;10.37;;
19221;SDS011;9745;50.828;4.378;2023-03-08T15:48:56;17.17;;;11.27;;
19221;SDS011;9745;50.828;4.378;2023-03-08T15:51:24;19.00;;;10.90;;
19221;SDS011;9745;50.828;4.378;2023-03-08T15:53:52;21.03;;;10.63;;
19221;SDS011;9745;50.828;4.378;2023-03-08T15:56:18;17.63;;;10.27;;
19221;SDS011;9745;50.828;4.378;2023-03-08T15:58:46;19.33;;;12.90;;
19221;SDS011;9745;50.828;4.378;2023-03-08T16:01:12;18.10;;;10.87;;